createdAt,value
2018-07-27T00:00:36.185Z,100869.23
2018-07-27T00:03:02.201Z,100862.70
2018-07-27T00:05:28.166Z,100861.34
2018-07-27T00:07:54.142Z,100862.09
2018-07-27T00:10:20.115Z,100862.53
2018-07-27T00:12:46.083Z,100864.69
2018-07-27T00:15:12.030Z,100858.50
2018-07-27T00:17:38.009Z,100863.05
2018-07-27T00:20:03.992Z,100860.01
2018-07-27T00:22:29.963Z,100860.17
2018-07-27T00:24:55.920Z,100858.44
2018-07-27T00:27:21.907Z,100851.64
2018-07-27T00:29:47.872Z,100849.69
2018-07-27T00:32:13.853Z,100851.88
2018-07-27T00:34:39.815Z,100851.91
2018-07-27T00:37:05.776Z,100856.25
2018-07-27T00:39:31.746Z,100857.45
2018-07-27T00:41:57.702Z,100851.60
2018-07-27T00:44:23.673Z,100850.78
2018-07-27T00:46:49.656Z,100856.76
2018-07-27T00:49:15.621Z,100853.58
2018-07-27T00:51:41.594Z,100849.24
2018-07-27T00:54:07.580Z,100854.09
2018-07-27T00:56:33.533Z,100857.07
2018-07-27T00:58:59.506Z,100857.75
2018-07-27T01:01:25.542Z,100861.75
2018-07-27T01:03:51.503Z,100851.91
2018-07-27T01:06:18.248Z,100849.31
2018-07-27T01:08:44.215Z,100846.10
2018-07-27T01:11:10.204Z,100847.44
2018-07-27T01:13:36.156Z,100845.45
2018-07-27T01:16:02.177Z,100842.83
2018-07-27T01:18:28.125Z,100850.68
2018-07-27T01:20:54.100Z,100840.53
2018-07-27T01:23:20.069Z,100840.16
2018-07-27T01:25:46.042Z,100837.66
2018-07-27T01:28:12.023Z,100842.31
2018-07-27T01:30:38.048Z,100838.31
2018-07-27T01:33:04.014Z,100838.69
2018-07-27T01:35:29.980Z,100831.89
2018-07-27T01:37:55.927Z,100835.07
2018-07-27T01:40:21.913Z,100836.20
2018-07-27T01:42:47.899Z,100836.16
2018-07-27T01:45:13.893Z,100827.52
2018-07-27T01:47:39.856Z,100826.84
2018-07-27T01:50:05.849Z,100827.73
2018-07-27T01:52:31.806Z,100829.87
2018-07-27T01:54:57.781Z,100826.29
2018-07-27T01:57:23.751Z,100830.56
2018-07-27T01:59:49.732Z,100827.90
2018-07-27T02:02:15.697Z,100826.56
2018-07-27T02:04:44.153Z,100829.23
2018-07-27T02:07:10.182Z,100832.44
2018-07-27T02:09:36.140Z,100828.95
2018-07-27T02:12:02.117Z,100832.27
2018-07-27T02:14:28.072Z,100828.95
2018-07-27T02:16:54.021Z,100831.28
2018-07-27T02:19:20.075Z,100826.80
2018-07-27T02:21:46.008Z,100828.61
2018-07-27T02:24:11.989Z,100820.63
2018-07-27T02:26:37.952Z,100817.34
2018-07-27T02:29:03.912Z,100817.34
2018-07-27T02:31:29.905Z,100813.42
2018-07-27T02:33:55.898Z,100806.83
2018-07-27T02:36:21.932Z,100812.84
2018-07-27T02:38:47.880Z,100806.83
2018-07-27T02:41:13.856Z,100810.99
2018-07-27T02:43:39.814Z,100813.97
2018-07-27T02:46:05.793Z,100806.45
2018-07-27T02:48:31.772Z,100802.49
2018-07-27T02:50:57.741Z,100801.43
2018-07-27T02:53:23.712Z,100798.33
2018-07-27T02:55:49.679Z,100804.30
2018-07-27T02:58:15.684Z,100806.83
2018-07-27T03:00:41.635Z,100804.84
2018-07-27T03:03:07.622Z,100800.34
2018-07-27T03:05:33.614Z,100804.51
2018-07-27T03:07:59.560Z,100800.72
2018-07-27T03:10:25.530Z,100802.36
2018-07-27T03:12:51.499Z,100795.39
2018-07-27T03:15:17.480Z,100797.30
2018-07-27T03:17:43.552Z,100803.37
2018-07-27T03:20:09.506Z,100803.23
2018-07-27T03:22:35.469Z,100802.87
2018-07-27T03:25:01.505Z,100804.70
2018-07-27T03:27:27.477Z,100807.52
2018-07-27T03:29:53.423Z,100795.39
2018-07-27T03:32:19.399Z,100803.37
2018-07-27T03:34:45.358Z,100794.05
2018-07-27T03:37:11.335Z,100790.88
2018-07-27T03:39:37.287Z,100791.91
2018-07-27T03:42:03.270Z,100795.52
2018-07-27T03:44:29.219Z,100792.38
2018-07-27T03:46:55.189Z,100803.03
2018-07-27T03:49:21.149Z,100792.76
2018-07-27T03:51:47.116Z,100796.52
2018-07-27T03:54:13.086Z,100793.92
2018-07-27T03:56:39.068Z,100792.52
2018-07-27T03:59:05.017Z,100792.18
2018-07-27T04:01:30.963Z,100791.42
2018-07-27T04:03:57.504Z,100792.31
2018-07-27T04:06:23.475Z,100788.25
2018-07-27T04:08:49.460Z,100791.05
2018-07-27T04:11:15.412Z,100791.77
2018-07-27T04:13:41.393Z,100790.09
2018-07-27T04:16:07.350Z,100788.39
2018-07-27T04:18:33.326Z,100798.42
2018-07-27T04:20:59.292Z,100794.09
2018-07-27T04:23:25.263Z,100801.09
2018-07-27T04:25:51.212Z,100798.45
2018-07-27T04:28:17.341Z,100800.61
2018-07-27T04:30:43.299Z,100807.75
2018-07-27T04:33:09.280Z,100803.61
2018-07-27T04:35:35.266Z,100801.91
2018-07-27T04:38:01.227Z,100804.23
2018-07-27T04:40:27.173Z,100805.91
2018-07-27T04:42:53.156Z,100807.09
2018-07-27T04:45:19.097Z,100811.09
2018-07-27T04:47:45.051Z,100812.36
2018-07-27T04:50:11.083Z,100811.54
2018-07-27T04:52:37.040Z,100811.36
2018-07-27T04:55:03.019Z,100814.58
2018-07-27T04:57:29.052Z,100814.06
2018-07-27T04:59:55.005Z,100811.91
2018-07-27T05:02:20.984Z,100814.74
2018-07-27T05:04:46.989Z,100818.70
2018-07-27T05:07:12.897Z,100812.36
2018-07-27T05:09:38.852Z,100811.23
2018-07-27T05:12:04.817Z,100818.20
2018-07-27T05:14:30.816Z,100817.06
2018-07-27T05:16:56.785Z,100814.71
2018-07-27T05:19:22.764Z,100819.22
2018-07-27T05:21:48.966Z,100815.53
2018-07-27T05:24:14.980Z,100810.86
2018-07-27T05:26:40.972Z,100814.88
2018-07-27T05:29:06.954Z,100813.89
2018-07-27T05:31:32.935Z,100813.89
2018-07-27T05:33:58.922Z,100812.05
2018-07-27T05:36:24.905Z,100810.20
2018-07-27T05:38:50.922Z,100804.51
2018-07-27T05:41:16.904Z,100811.67
2018-07-27T05:43:42.861Z,100810.69
2018-07-27T05:46:08.852Z,100815.12
2018-07-27T05:48:34.859Z,100811.50
2018-07-27T05:51:00.783Z,100814.85
2018-07-27T05:53:26.759Z,100811.23
2018-07-27T05:55:52.775Z,100810.41
2018-07-27T05:58:18.761Z,100805.12
2018-07-27T06:00:44.832Z,100809.70
2018-07-27T06:03:10.845Z,100803.62
2018-07-27T06:05:36.804Z,100811.37
2018-07-27T06:08:02.759Z,100810.95
2018-07-27T06:10:28.751Z,100807.13
2018-07-27T06:12:54.737Z,100813.63
2018-07-27T06:15:20.719Z,100811.67
2018-07-27T06:17:46.681Z,100814.30
2018-07-27T06:20:12.647Z,100812.02
2018-07-27T06:22:38.621Z,100811.64
2018-07-27T06:25:04.540Z,100810.20
2018-07-27T06:27:30.516Z,100811.33
2018-07-27T06:29:56.506Z,100807.94
2018-07-27T06:32:22.470Z,100809.41
2018-07-27T06:34:48.414Z,100803.13
2018-07-27T06:37:14.395Z,100801.66
2018-07-27T06:39:40.383Z,100811.59
2018-07-27T06:42:06.344Z,100807.63
2018-07-27T06:44:32.293Z,100803.20
2018-07-27T06:46:58.263Z,100802.19
2018-07-27T06:49:24.214Z,100805.75
2018-07-27T06:51:50.168Z,100802.61
2018-07-27T06:54:16.126Z,100799.91
2018-07-27T06:56:42.116Z,100799.53
2018-07-27T06:59:08.101Z,100799.73
2018-07-27T07:01:34.071Z,100802.30
2018-07-27T07:04:00.070Z,100801.92
2018-07-27T07:06:26.018Z,100797.11
2018-07-27T07:08:51.993Z,100797.92
2018-07-27T07:11:17.938Z,100797.24
2018-07-27T07:13:43.950Z,100799.77
2018-07-27T07:16:09.907Z,100795.22
2018-07-27T07:18:35.867Z,100795.34
2018-07-27T07:21:01.825Z,100797.80
2018-07-27T07:23:27.786Z,100796.25
2018-07-27T07:25:53.996Z,100791.60
2018-07-27T07:28:19.798Z,100793.86
2018-07-27T07:30:45.786Z,100796.52
2018-07-27T07:33:11.761Z,100795.40
2018-07-27T07:35:37.783Z,100790.03
2018-07-27T07:38:03.816Z,100784.69
2018-07-27T07:40:29.856Z,100785.38
2018-07-27T07:42:55.876Z,100787.62
2018-07-27T07:45:21.852Z,100779.66
2018-07-27T07:47:47.815Z,100782.80
2018-07-27T07:50:13.763Z,100779.75
2018-07-27T07:52:39.744Z,100780.31
2018-07-27T07:55:05.710Z,100778.15
2018-07-27T07:57:31.669Z,100776.95
2018-07-27T07:59:57.616Z,100774.67
2018-07-27T08:02:23.615Z,100770.81
2018-07-27T08:04:49.555Z,100770.98
2018-07-27T08:07:15.510Z,100765.68
2018-07-27T08:09:41.458Z,100767.06
2018-07-27T08:12:07.401Z,100761.34
2018-07-27T08:14:33.352Z,100756.06
2018-07-27T08:16:59.312Z,100753.42
2018-07-27T08:19:25.290Z,100758.29
2018-07-27T08:21:51.248Z,100754.68
2018-07-27T08:24:17.217Z,100752.91
2018-07-27T08:26:43.381Z,100754.42
2018-07-27T08:29:09.369Z,100753.48
2018-07-27T08:31:35.334Z,100752.02
2018-07-27T08:34:01.304Z,100753.73
2018-07-27T08:36:27.307Z,100748.14
2018-07-27T08:38:53.350Z,100748.27
2018-07-27T08:41:19.274Z,100745.09
2018-07-27T08:43:45.240Z,100734.05
2018-07-27T08:46:11.206Z,100736.27
2018-07-27T08:48:37.147Z,100744.97
2018-07-27T08:51:03.104Z,100740.53
2018-07-27T08:53:29.063Z,100730.86
2018-07-27T08:55:55.031Z,100729.18
2018-07-27T08:58:21.124Z,100719.95
2018-07-27T09:00:47.083Z,100726.87
2018-07-27T09:03:13.053Z,100718.24
2018-07-27T09:05:39.072Z,100718.53
2018-07-27T09:08:05.025Z,100712.91
2018-07-27T09:10:30.971Z,100718.23
2018-07-27T09:12:56.899Z,100713.42
2018-07-27T09:15:22.885Z,100712.09
2018-07-27T09:17:48.832Z,100710.05
2018-07-27T09:20:14.783Z,100707.05
2018-07-27T09:22:40.737Z,100706.95
2018-07-27T09:25:06.917Z,100703.44
2018-07-27T09:27:32.671Z,100701.75
2018-07-27T09:29:58.639Z,100704.03
2018-07-27T09:32:24.595Z,100704.16
2018-07-27T09:34:50.565Z,100703.31
2018-07-27T09:37:16.554Z,100702.58
2018-07-27T09:39:42.513Z,100701.50
2018-07-27T09:42:08.493Z,100704.80
2018-07-27T09:44:34.431Z,100695.39
2018-07-27T09:47:00.383Z,100691.31
2018-07-27T09:49:26.343Z,100695.39
2018-07-27T09:51:52.307Z,100689.94
2018-07-27T09:54:18.291Z,100694.77
2018-07-27T09:56:44.242Z,100688.47
2018-07-27T09:59:10.194Z,100686.58
2018-07-27T10:01:36.139Z,100687.45
2018-07-27T10:04:02.112Z,100691.95
2018-07-27T10:06:28.076Z,100681.86
2018-07-27T10:08:54.036Z,100678.58
2018-07-27T10:11:20.015Z,100676.73
2018-07-27T10:13:45.992Z,100668.86
2018-07-27T10:16:11.949Z,100670.77
2018-07-27T10:18:37.920Z,100668.22
2018-07-27T10:21:03.875Z,100671.79
2018-07-27T10:23:29.835Z,100666.12
2018-07-27T10:25:55.788Z,100672.48
2018-07-27T10:28:21.834Z,100668.18
2018-07-27T10:30:47.760Z,100660.92
2018-07-27T10:33:13.711Z,100659.33
2018-07-27T10:35:39.732Z,100657.87
2018-07-27T10:38:06.552Z,100662.84
2018-07-27T10:40:32.516Z,100660.31
2018-07-27T10:42:58.499Z,100663.10
2018-07-27T10:45:24.468Z,100653.87
2018-07-27T10:47:50.431Z,100649.51
2018-07-27T10:50:16.404Z,100648.44
2018-07-27T10:52:42.353Z,100650.15
2018-07-27T10:55:08.328Z,100636.75
2018-07-27T10:57:34.300Z,100633.00
2018-07-27T11:00:00.259Z,100642.84
2018-07-27T11:02:26.269Z,100635.47
2018-07-27T11:04:52.175Z,100634.27
2018-07-27T11:07:18.164Z,100630.47
2018-07-27T11:09:44.116Z,100634.41
2018-07-27T11:12:10.056Z,100633.53
2018-07-27T11:14:36.022Z,100631.22
2018-07-27T11:17:01.965Z,100629.25
2018-07-27T11:19:27.936Z,100615.74
2018-07-27T11:21:54.276Z,100614.88
2018-07-27T11:24:20.256Z,100607.75
2018-07-27T11:26:46.203Z,100604.52
2018-07-27T11:29:12.151Z,100604.06
2018-07-27T11:31:38.117Z,100602.40
2018-07-27T11:34:04.109Z,100597.45
2018-07-27T11:36:30.060Z,100595.31
2018-07-27T11:38:56.059Z,100587.95
2018-07-27T11:41:22.015Z,100595.95
2018-07-27T11:43:47.974Z,100588.02
2018-07-27T11:46:13.959Z,100579.95
2018-07-27T11:48:39.947Z,100579.83
2018-07-27T11:51:05.907Z,100572.22
2018-07-27T11:53:31.883Z,100580.58
2018-07-27T11:55:57.828Z,100577.16
2018-07-27T11:58:23.788Z,100578.16
2018-07-27T12:00:49.757Z,100573.05
2018-07-27T12:03:15.731Z,100561.81
2018-07-27T12:05:41.692Z,100565.66
2018-07-27T12:08:07.659Z,100560.02
2018-07-27T12:10:33.618Z,100561.84
2018-07-27T12:12:59.591Z,100556.45
2018-07-27T12:15:25.636Z,100555.81
2018-07-27T12:17:51.605Z,100552.39
2018-07-27T12:20:17.557Z,100548.75
2018-07-27T12:22:43.504Z,100547.53
2018-07-27T12:25:09.489Z,100540.17
2018-07-27T12:27:35.450Z,100542.18
2018-07-27T12:30:01.404Z,100539.84
2018-07-27T12:32:27.561Z,100541.70
2018-07-27T12:34:53.523Z,100536.97
2018-07-27T12:37:19.464Z,100534.00
2018-07-27T12:39:45.427Z,100533.77
2018-07-27T12:42:11.392Z,100533.09
2018-07-27T12:44:37.378Z,100535.52
2018-07-27T12:47:03.353Z,100525.73
2018-07-27T12:49:29.321Z,100519.58
2018-07-27T12:51:55.273Z,100517.09
2018-07-27T12:54:21.261Z,100513.55
2018-07-27T12:56:47.283Z,100512.41
2018-07-27T12:59:13.258Z,100503.24
2018-07-27T13:01:39.209Z,100500.34
2018-07-27T13:04:05.156Z,100502.83
2018-07-27T13:06:31.123Z,100507.52
2018-07-27T13:08:57.095Z,100500.22
2018-07-27T13:11:23.058Z,100501.63
2018-07-27T13:13:49.034Z,100498.53
2018-07-27T13:16:15.047Z,100488.88
2018-07-27T13:18:41.010Z,100484.87
2018-07-27T13:21:07.056Z,100482.84
2018-07-27T13:23:33.031Z,100475.94
2018-07-27T13:28:25.006Z,100474.61
2018-07-27T13:30:50.996Z,100469.73
2018-07-27T13:33:17.000Z,100470.31
2018-07-27T13:38:08.935Z,100471.14
2018-07-27T13:40:34.879Z,100462.62
2018-07-27T13:43:00.850Z,100467.55
2018-07-27T13:45:26.843Z,100460.66
2018-07-27T13:47:52.922Z,100458.84
2018-07-27T13:50:18.867Z,100453.51
2018-07-27T13:52:44.826Z,100454.63
2018-07-27T13:55:10.769Z,100457.64
2018-07-27T13:57:36.808Z,100451.49
2018-07-27T14:00:02.744Z,100446.73
2018-07-27T14:02:28.700Z,100439.09
2018-07-27T14:04:54.677Z,100433.94
2018-07-27T14:07:20.629Z,100429.63
2018-07-27T14:09:46.615Z,100435.20
2018-07-27T14:12:12.580Z,100429.70
2018-07-27T14:14:38.552Z,100431.10
2018-07-27T14:17:04.514Z,100422.57
2018-07-27T14:19:30.490Z,100419.32
2018-07-27T14:21:56.443Z,100416.64
2018-07-27T14:24:22.387Z,100412.02
2018-07-27T14:26:48.371Z,100407.20
2018-07-27T14:29:14.389Z,100408.64
2018-07-27T14:31:40.310Z,100413.75
2018-07-27T14:34:06.292Z,100406.41
2018-07-27T14:36:32.257Z,100404.08
2018-07-27T14:38:58.214Z,100402.92
2018-07-27T14:41:24.168Z,100396.15
2018-07-27T14:43:50.182Z,100398.00
2018-07-27T14:46:16.143Z,100393.16
2018-07-27T14:48:42.088Z,100390.93
2018-07-27T14:51:08.110Z,100389.16
2018-07-27T14:53:34.089Z,100387.12
2018-07-27T14:56:00.043Z,100380.09
2018-07-27T14:58:26.007Z,100376.49
2018-07-27T15:00:51.972Z,100373.05
2018-07-27T15:03:17.947Z,100378.50
2018-07-27T15:05:43.925Z,100379.20
2018-07-27T15:08:09.904Z,100374.02
2018-07-27T15:10:35.914Z,100373.02
2018-07-27T15:13:01.870Z,100371.16
2018-07-27T15:15:27.835Z,100369.69
2018-07-27T15:17:53.789Z,100372.20
2018-07-27T15:20:19.777Z,100361.09
2018-07-27T15:22:45.745Z,100359.80
2018-07-27T15:25:11.716Z,100363.72
2018-07-27T15:27:37.673Z,100351.98
2018-07-27T15:30:03.666Z,100353.72
2018-07-27T15:32:29.638Z,100352.57
2018-07-27T15:34:55.617Z,100348.20
2018-07-27T15:37:21.585Z,100347.25
2018-07-27T15:39:47.524Z,100348.31
2018-07-27T15:42:13.490Z,100337.95
2018-07-27T15:44:39.465Z,100341.87
2018-07-27T15:47:05.406Z,100336.44
2018-07-27T15:49:31.426Z,100342.66
2018-07-27T15:51:57.391Z,100336.20
2018-07-27T15:54:23.345Z,100332.14
2018-07-27T15:56:49.286Z,100331.25
2018-07-27T15:59:15.324Z,100331.10
2018-07-27T16:01:41.295Z,100322.77
2018-07-27T16:04:07.264Z,100329.81
2018-07-27T16:06:33.265Z,100321.22
2018-07-27T16:08:59.231Z,100317.11
2018-07-27T16:11:25.192Z,100313.73
2018-07-27T16:13:51.188Z,100306.48
2018-07-27T16:16:17.152Z,100305.85
2018-07-27T16:18:43.135Z,100303.78
2018-07-27T16:21:09.112Z,100297.34
2018-07-27T16:23:35.060Z,100304.59
2018-07-27T16:26:01.039Z,100296.22
2018-07-27T16:28:27.085Z,100304.33
2018-07-27T16:30:53.055Z,100300.33
2018-07-27T16:33:19.008Z,100292.66
2018-07-27T16:35:44.982Z,100292.66
2018-07-27T16:38:10.935Z,100290.67
2018-07-27T16:40:36.922Z,100293.89
2018-07-27T16:43:02.952Z,100290.59
2018-07-27T16:45:28.897Z,100290.05
2018-07-27T16:47:54.846Z,100284.49
2018-07-27T16:50:20.877Z,100289.75
2018-07-27T16:52:46.877Z,100295.00
2018-07-27T16:55:12.807Z,100285.45
2018-07-27T16:57:38.763Z,100290.56
2018-07-27T17:00:04.727Z,100284.31
2018-07-27T17:02:30.680Z,100286.56
2018-07-27T17:04:56.687Z,100284.34
2018-07-27T17:07:22.637Z,100282.40
2018-07-27T17:09:48.596Z,100281.56
2018-07-27T17:12:14.639Z,100279.66
2018-07-27T17:14:40.530Z,100282.40
2018-07-27T17:17:06.516Z,100274.41
2018-07-27T17:19:32.480Z,100273.97
2018-07-27T17:21:58.453Z,100279.41
2018-07-27T17:24:24.407Z,100278.78
2018-07-27T17:26:50.380Z,100275.12
2018-07-27T17:29:16.323Z,100271.82
2018-07-27T17:31:42.340Z,100277.16
2018-07-27T17:34:08.304Z,100281.34
2018-07-27T17:36:34.251Z,100270.05
2018-07-27T17:39:00.214Z,100267.41
2018-07-27T17:41:26.179Z,100261.68
2018-07-27T17:43:52.152Z,100265.27
2018-07-27T17:46:18.118Z,100257.78
2018-07-27T17:48:44.104Z,100255.94
2018-07-27T17:51:10.061Z,100253.67
2018-07-27T17:53:36.075Z,100250.92
2018-07-27T17:56:02.049Z,100252.05
2018-07-27T17:58:28.015Z,100252.45
2018-07-27T18:00:53.961Z,100254.19
2018-07-27T18:03:19.935Z,100250.41
2018-07-27T18:05:45.887Z,100247.36
2018-07-27T18:08:11.853Z,100244.80
2018-07-27T18:10:37.805Z,100244.67
2018-07-27T18:13:03.805Z,100243.31
2018-07-27T18:15:29.756Z,100239.61
2018-07-27T18:17:55.710Z,100242.42
2018-07-27T18:20:21.684Z,100239.31
2018-07-27T18:22:47.661Z,100244.02
2018-07-27T18:25:13.690Z,100236.14
2018-07-27T18:27:39.580Z,100247.02
2018-07-27T18:30:05.595Z,100244.26
2018-07-27T18:32:31.620Z,100243.61
2018-07-27T18:34:57.644Z,100243.01
2018-07-27T18:37:23.588Z,100236.78
2018-07-27T18:39:49.668Z,100235.53
2018-07-27T18:42:15.724Z,100243.63
2018-07-27T18:44:41.706Z,100238.52
2018-07-27T18:47:07.666Z,100239.22
2018-07-27T18:49:33.603Z,100237.89
2018-07-27T18:51:59.587Z,100246.61
2018-07-27T18:54:25.573Z,100247.09
2018-07-27T18:56:51.536Z,100246.39
2018-07-27T18:59:17.511Z,100248.34
2018-07-27T19:01:43.594Z,100252.45
2018-07-27T19:04:09.518Z,100248.43
2018-07-27T19:06:35.492Z,100248.64
2018-07-27T19:09:01.454Z,100248.34
2018-07-27T19:11:27.437Z,100241.77
2018-07-27T19:13:53.394Z,100241.27
2018-07-27T19:16:19.354Z,100244.54
2018-07-27T19:18:45.321Z,100239.75
2018-07-27T19:21:11.311Z,100238.80
2018-07-27T19:23:37.301Z,100245.46
2018-07-27T19:26:03.249Z,100239.86
2018-07-27T19:28:29.207Z,100247.13
2018-07-27T19:30:55.194Z,100242.91
2018-07-27T19:33:21.216Z,100245.98
2018-07-27T19:38:19.552Z,100234.72
2018-07-27T19:40:45.548Z,100234.80
2018-07-27T19:43:11.516Z,100237.41
2018-07-27T19:45:37.479Z,100241.89
2018-07-27T19:48:03.461Z,100251.31
2018-07-27T19:50:29.411Z,100247.20
2018-07-27T19:52:55.375Z,100251.61
2018-07-27T19:55:21.632Z,100243.23
2018-07-27T19:57:47.602Z,100248.34
2018-07-27T20:00:13.587Z,100251.01
2018-07-27T20:02:39.553Z,100254.70
2018-07-27T20:05:05.520Z,100256.05
2018-07-27T20:07:31.701Z,100254.60
2018-07-27T20:09:57.775Z,100251.63
2018-07-27T20:12:23.760Z,100251.13
2018-07-27T20:14:49.763Z,100257.68
2018-07-27T20:17:15.752Z,100259.02
2018-07-27T20:19:41.738Z,100256.34
2018-07-27T20:22:07.724Z,100261.76
2018-07-27T20:24:33.694Z,100261.23
2018-07-27T20:26:59.690Z,100263.50
2018-07-27T20:29:25.693Z,100266.47
2018-07-27T20:31:51.655Z,100258.58
2018-07-27T20:34:17.664Z,100261.34
2018-07-27T20:36:43.667Z,100263.61
2018-07-27T20:39:09.644Z,100261.65
2018-07-27T20:41:35.723Z,100258.60
2018-07-27T20:44:01.802Z,100258.63
2018-07-27T20:46:27.738Z,100258.90
2018-07-27T20:48:53.723Z,100260.23
2018-07-27T20:51:19.700Z,100261.19
2018-07-27T20:53:45.696Z,100258.16
2018-07-27T20:56:11.692Z,100255.61
2018-07-27T20:58:37.657Z,100261.57
2018-07-27T21:01:03.651Z,100259.80
2018-07-27T21:03:29.626Z,100255.80
2018-07-27T21:05:55.646Z,100254.80
2018-07-27T21:08:21.625Z,100254.66
2018-07-27T21:10:47.624Z,100253.84
2018-07-27T21:13:13.702Z,100247.88
2018-07-27T21:15:39.708Z,100248.02
2018-07-27T21:18:05.679Z,100246.55
2018-07-27T21:20:31.699Z,100251.09
2018-07-27T21:22:57.688Z,100257.95
2018-07-27T21:25:23.650Z,100251.94
2018-07-27T21:27:49.611Z,100254.41
2018-07-27T21:30:15.604Z,100256.23
2018-07-27T21:32:41.657Z,100252.64
2018-07-27T21:35:07.630Z,100256.55
2018-07-27T21:37:33.652Z,100268.94
2018-07-27T21:39:59.748Z,100261.65
2018-07-27T21:42:25.728Z,100260.80
2018-07-27T21:44:51.691Z,100260.72
2018-07-27T21:47:17.661Z,100262.47
2018-07-27T21:49:43.644Z,100261.55
2018-07-27T21:52:09.626Z,100259.61
2018-07-27T21:54:35.608Z,100256.02
2018-07-27T21:57:01.577Z,100253.66
2018-07-27T21:59:27.588Z,100250.39
2018-07-27T22:01:53.564Z,100244.13
2018-07-27T22:04:19.750Z,100248.02
2018-07-27T22:06:46.035Z,100247.39
2018-07-27T22:09:12.004Z,100237.44
2018-07-27T22:11:38.002Z,100249.68
2018-07-27T22:14:03.957Z,100244.44
2018-07-27T22:16:29.947Z,100239.36
2018-07-27T22:18:55.945Z,100240.13
2018-07-27T22:21:21.952Z,100234.80
2018-07-27T22:23:48.014Z,100231.23
2018-07-27T22:26:13.951Z,100231.62
2018-07-27T22:28:39.989Z,100229.75
2018-07-27T22:31:05.981Z,100234.47
2018-07-27T22:33:32.037Z,100230.59
2018-07-27T22:35:58.012Z,100225.96
2018-07-27T22:38:23.981Z,100229.66
2018-07-27T22:40:50.123Z,100223.59
2018-07-27T22:43:15.953Z,100222.64
2018-07-27T22:45:41.931Z,100222.50
2018-07-27T22:48:07.910Z,100228.16
2018-07-27T22:50:33.980Z,100228.99
2018-07-27T22:53:00.001Z,100218.34
2018-07-27T22:55:26.168Z,100223.22
2018-07-27T22:57:52.147Z,100225.08
2018-07-27T23:00:18.122Z,100214.03
2018-07-27T23:02:44.125Z,100206.53
2018-07-27T23:05:10.112Z,100205.91
2018-07-27T23:07:36.123Z,100208.74
2018-07-27T23:10:02.104Z,100213.06
2018-07-27T23:12:28.091Z,100215.43
2018-07-27T23:14:54.066Z,100217.78
2018-07-27T23:17:20.052Z,100216.63
2018-07-27T23:19:46.023Z,100213.34
2018-07-27T23:22:12.042Z,100202.90
2018-07-27T23:24:38.076Z,100209.59
2018-07-27T23:27:04.064Z,100208.75
2018-07-27T23:29:30.060Z,100207.82
2018-07-27T23:31:56.028Z,100207.23
2018-07-27T23:34:22.086Z,100203.33
2018-07-27T23:36:48.076Z,100201.67
2018-07-27T23:39:14.048Z,100203.93
2018-07-27T23:41:40.045Z,100195.03
2018-07-27T23:44:06.036Z,100193.16
2018-07-27T23:46:32.126Z,100188.37
2018-07-27T23:48:58.092Z,100191.83
2018-07-27T23:51:24.076Z,100189.36
2018-07-27T23:53:50.057Z,100190.48
2018-07-27T23:56:16.053Z,100183.00
2018-07-27T23:58:42.036Z,100174.00
